ADDS METAR Data INFO
IDs: Format: Raw Decoded Include TAF

Data at: 0313 UTC 20 Jul 2018

KD60 200255Z AUTO 01007KT 10SM CLR 20/18 A2997 RMK AO2
KD60 200235Z AUTO 01007KT 10SM CLR 21/17 A2996 RMK AO2
KD60 200215Z AUTO 01008KT 10SM CLR 22/17 A2996 RMK AO2
KD60 200155Z AUTO 36010KT 10SM FEW048 23/16 A2995 RMK AO2
KD60 200135Z AUTO 01013KT 10SM FEW040 24/16 A2994 RMK AO2
KD60 200115Z AUTO 36010G19KT 10SM CLR 24/16 A2993 RMK AO2
KD60 200055Z AUTO 36014KT 10SM CLR 25/16 A2992 RMK AO2
KD60 200035Z AUTO 01013G18KT 10SM FEW050 FEW055 26/16 A2991 RMK AO2
KD60 200015Z AUTO 36016G21KT 10SM FEW050 FEW055 26/16 A2991 RMK AO2
KD60 192355Z AUTO 34015KT 10SM CLR 27/14 A2991 RMK AO2
KD60 192335Z AUTO 33012G21KT 10SM FEW048 FEW055 SCT080 27/15 A2991 RMK AO2
KD60 192315Z AUTO 35016G21KT 10SM FEW050 SCT070 SCT080 26/15 A2991 RMK AO2 LTG DSNT NE AND E
KD60 192255Z AUTO 34013G20KT 10SM FEW050 FEW055 SCT070 28/14 A2990 RMK AO2
KD60 192235Z AUTO 34013G18KT 10SM FEW050 FEW055 SCT070 28/15 A2990 RMK AO2
KD60 192215Z AUTO 34012G17KT 10SM FEW050 FEW055 FEW070 28/15 A2990 RMK AO2
KD60 192155Z AUTO 31011G17KT 10SM FEW050 FEW060 28/14 A2990 RMK AO2
KD60 192135Z AUTO 33012G19KT 10SM FEW049 FEW060 28/15 A2991 RMK AO2
KD60 192115Z AUTO 34012KT 10SM FEW049 SCT060 28/15 A2990 RMK AO2
KD60 192055Z AUTO 33015KT 10SM CLR 28/14 A2990 RMK AO2 LTG DSNT SE
KD60 192035Z AUTO 33011KT 10SM CLR 27/14 A2990 RMK AO2 LTG DSNT SE AND S
KD60 192015Z AUTO 32010G16KT 10SM FEW050 FEW060 FEW075 26/14 A2991 RMK AO2 LTG DSNT SW
KD60 191955Z AUTO 33012G19KT 10SM FEW050 FEW055 SCT075 28/15 A2991 RMK AO2
KD60 191935Z AUTO 31009G17KT 280V340 10SM CLR 28/16 A2991 RMK AO2
KD60 191915Z AUTO 31012G17KT 10SM FEW038 28/17 A2991 RMK AO2
KD60 191855Z AUTO 33009G15KT 10SM CLR 27/16 A2991 RMK AO2
KD60 191835Z AUTO 32010G16KT 10SM CLR 27/17 A2991 RMK AO2
KD60 191815Z AUTO 31012KT 10SM CLR 26/16 A2991 RMK AO2
KD60 191755Z AUTO 32008G14KT 10SM CLR 27/16 A2991 RMK AO2 LTG DSNT SE
KD60 191735Z AUTO 33009G15KT 10SM CLR 27/16 A2991 RMK AO2 LTG DSNT SE AND S
KD60 191715Z AUTO 33010KT 310V010 10SM SCT090 26/16 A2991 RMK AO2
KD60 191655Z AUTO 33006G14KT 10SM FEW090 26/17 A2991 RMK AO2
KD60 191635Z AUTO 32007G12KT 10SM SCT090 26/18 A2991 RMK AO2 LTG DSNT S
KD60 191615Z AUTO 33006KT 10SM OVC090 24/18 A2991 RMK AO2
KD60 191555Z AUTO 31008KT 10SM BKN095 24/17 A2991 RMK AO2
KD60 191535Z AUTO 29009KT 10SM BKN100 24/17 A2990 RMK AO2
KD60 191515Z AUTO 29010KT 10SM BKN100 23/17 A2990 RMK AO2
KD60 191455Z AUTO 30007KT 10SM SCT095 23/18 A2989 RMK AO2
KD60 191435Z AUTO 31008KT 10SM BKN095 BKN110 22/18 A2989 RMK AO2
KD60 191415Z AUTO 26004KT 10SM FEW100 21/19 A2989 RMK AO2
KD60 191355Z AUTO VRB03KT 10SM CLR 20/19 A2988 RMK AO2
KD60 191335Z AUTO 23004KT 10SM FEW110 19/19 A2988 RMK AO2
KD60 191315Z AUTO 00000KT 10SM CLR 18/18 A2988 RMK AO2
KD60 191255Z AUTO 00000KT 10SM CLR 17/17 A2988 RMK AO2
KD60 191235Z AUTO 16004KT 10SM CLR 16/16 A2988 RMK AO2
KD60 191215Z AUTO 00000KT 10SM CLR 15/15 A2988 RMK AO2
KD60 191155Z AUTO 00000KT 10SM CLR 15/15 A2987 RMK AO2
KD60 191135Z AUTO 12003KT 10SM CLR 15/15 A2987 RMK AO2
KD60 191115Z AUTO 05003KT 10SM SCT120 15/15 A2987 RMK AO2
KD60 191055Z AUTO 04004KT 10SM BKN120 15/15 A2988 RMK AO2
KD60 191035Z AUTO 00000KT 10SM FEW120 16/16 A2988 RMK AO2
KD60 191015Z AUTO 00000KT 10SM CLR 16/16 A2988 RMK AO2
KD60 190955Z AUTO 00000KT 10SM CLR 16/16 A2988 RMK AO2
KD60 190935Z AUTO 00000KT 10SM CLR 16/16 A2989 RMK AO2
KD60 190915Z AUTO 22006KT 10SM CLR 15/15 A2989 RMK AO2
KD60 190855Z AUTO 20006KT 10SM CLR 15/15 A2988 RMK AO2
KD60 190835Z AUTO 14004KT 10SM CLR 15/15 A2988 RMK AO2
KD60 190815Z AUTO 17005KT 10SM CLR 15/16 A2987 RMK AO2
KD60 190755Z AUTO 00000KT 10SM CLR 16/16 A2988 RMK AO2
KD60 190735Z AUTO 22004KT 10SM CLR 16/16 A2989 RMK AO2
KD60 190715Z AUTO 21005KT 10SM CLR 17/17 A2989 RMK AO2
KD60 190655Z AUTO 22009G15KT 10SM SCT120 19/17 A2989 RMK AO2
KD60 190635Z AUTO 24008KT 10SM BKN120 19/16 A2989 RMK AO2
KD60 190615Z AUTO 00000G14KT 10SM CLR 19/16 A2987 RMK AO2
KD60 190555Z AUTO 00000KT 10SM CLR 17/17 A2986 RMK AO2
KD60 190535Z AUTO 23004KT 10SM CLR 17/17 A2986 RMK AO2
KD60 190515Z AUTO 28003KT 10SM CLR 18/17 A2987 RMK AO2
KD60 190455Z AUTO 29008G14KT 10SM CLR 19/17 A2988 RMK AO2
KD60 190435Z AUTO 29010G15KT 10SM CLR 20/17 A2990 RMK AO2
KD60 190415Z AUTO 30013G21KT 10SM CLR 21/17 A2991 RMK AO2
KD60 190355Z AUTO 26017KT 10SM FEW085 22/18 A2991 RMK AO2 LTG DSNT W
KD60 190335Z AUTO 22009KT 10SM FEW120 21/19 A2990 RMK AO2 LTG DSNT W
KD60 190315Z AUTO 21008KT 10SM FEW120 20/20 A2990 RMK AO2
KD60 190255Z AUTO 20008KT 10SM CLR 20/20 A2989 RMK AO2 LTG DSNT W AND NW
KD60 190235Z AUTO 21007KT 10SM CLR 20/20 A2989 RMK AO2 LTG DSNT NW
KD60 190215Z AUTO 18006KT 10SM CLR 21/20 A2989 RMK AO2
KD60 190155Z AUTO 16008KT 10SM CLR 22/19 A2989 RMK AO2
KD60 190135Z AUTO 15006KT 10SM CLR 22/18 A2990 RMK AO2
KD60 190115Z AUTO 14007KT 10SM CLR 23/17 A2990 RMK AO2
KD60 190055Z AUTO 18005KT 10SM CLR 24/16 A2990 RMK AO2
KD60 190035Z AUTO 17005KT 10SM CLR 24/16 A2990 RMK AO2
KD60 190015Z AUTO 18008KT 10SM CLR 24/16 A2991 RMK AO2
KD60 182355Z AUTO 20008KT 10SM CLR 24/17 A2991 RMK AO2
KD60 182335Z AUTO 21009KT 10SM CLR 24/18 A2990 RMK AO2
KD60 182315Z AUTO VRB06G12KT 10SM CLR 24/18 A2990 RMK AO2
KD60 182255Z AUTO 13006KT 10SM CLR 24/18 A2991 RMK AO2
KD60 182235Z AUTO 09005KT 10SM CLR 24/18 A2992 RMK AO2
KD60 182215Z AUTO 13007G13KT 10SM CLR 23/18 A2992 RMK AO2 LTG DSNT N AND W
KD60 182155Z AUTO 36004KT 10SM -DZ SCT095 23/17 A2992 RMK AO2
KD60 182135Z AUTO 19003KT 10SM SCT100 SCT120 22/16 A2994 RMK AO2
KD60 182115Z AUTO 20008KT 10SM VCTS CLR 21/17 A2995 RMK AO2 LTG DSNT N AND NE
KD60 182055Z AUTO 19012G19KT 10SM FEW028 FEW044 FEW050 21/17 A2996 RMK AO2 LTG DSNT N-E
KD60 182035Z AUTO 19017G30KT 10SM VCTS FEW028 SCT044 SCT050 22/17 A2996 RMK AO2 LTG DSNT E-SW
KD60 182015Z AUTO 22009KT 10SM CLR 26/19 A2994 RMK AO2 LTG DSNT NE-S
KD60 181955Z AUTO 24005KT 10SM CLR 27/18 A2993 RMK AO2 LTG DSNT E-S
KD60 181935Z AUTO 25006KT 10SM CLR 28/19 A2992 RMK AO2 LTG DSNT SE AND S
KD60 181915Z AUTO 23007KT 10SM CLR 28/19 A2993 RMK AO2 LTG DSNT S
KD60 181855Z AUTO 19005G11KT 10SM CLR 29/18 A2994 RMK AO2
KD60 181835Z AUTO 21008KT 10SM CLR 29/18 A2995 RMK AO2
KD60 181815Z AUTO VRB06G11KT 10SM CLR 29/19 A2995 RMK AO2
KD60 181755Z AUTO 18007G12KT 140V200 10SM CLR 28/19 A2996 RMK AO2
KD60 181735Z AUTO 20006KT 10SM CLR 26/20 A2996 RMK AO2
KD60 181715Z AUTO 14006KT 10SM CLR 26/21 A2997 RMK AO2
KD60 181655Z AUTO 11005KT 10SM CLR 25/21 A2997 RMK AO2
KD60 181635Z AUTO 16006KT 10SM CLR 24/22 A2997 RMK AO2
KD60 181615Z AUTO 19005KT 10SM CLR 24/22 A2997 RMK AO2
KD60 181555Z AUTO 15006KT 10SM CLR 24/21 A2997 RMK AO2
KD60 181535Z AUTO 16005KT 10SM CLR 24/21 A2997 RMK AO2
KD60 181515Z AUTO 15008KT 10SM CLR 24/21 A2998 RMK AO2